sensor_id;sensor_type;location;lat;lon;timestamp;P1;durP1;ratioP1;P2;durP2;ratioP2
12412;SDS011;13877;18.896;-99.222;2022-12-05T00:01:26;6.50;;;2.53;;
12412;SDS011;13877;18.896;-99.222;2022-12-05T00:03:54;4.97;;;2.47;;
12412;SDS011;13877;18.896;-99.222;2022-12-05T00:06:22;4.53;;;3.00;;
12412;SDS011;13877;18.896;-99.222;2022-12-05T00:08:50;7.90;;;2.75;;
12412;SDS011;13877;18.896;-99.222;2022-12-05T00:11:18;6.78;;;3.10;;
12412;SDS011;13877;18.896;-99.222;2022-12-05T00:13:47;10.15;;;3.28;;
12412;SDS011;13877;18.896;-99.222;2022-12-05T00:16:15;5.95;;;2.95;;
12412;SDS011;13877;18.896;-99.222;2022-12-05T00:18:44;8.85;;;3.03;;
12412;SDS011;13877;18.896;-99.222;2022-12-05T00:21:13;8.88;;;3.33;;
12412;SDS011;13877;18.896;-99.222;2022-12-05T00:23:42;8.10;;;3.03;;
12412;SDS011;13877;18.896;-99.222;2022-12-05T00:26:09;8.13;;;3.88;;
12412;SDS011;13877;18.896;-99.222;2022-12-05T00:28:37;13.30;;;4.43;;
12412;SDS011;13877;18.896;-99.222;2022-12-05T00:31:05;19.05;;;4.38;;
12412;SDS011;13877;18.896;-99.222;2022-12-05T00:33:33;13.27;;;4.50;;
12412;SDS011;13877;18.896;-99.222;2022-12-05T00:36:04;17.08;;;4.20;;
12412;SDS011;13877;18.896;-99.222;2022-12-05T00:38:33;12.48;;;3.50;;
12412;SDS011;13877;18.896;-99.222;2022-12-05T00:41:04;10.02;;;3.38;;
12412;SDS011;13877;18.896;-99.222;2022-12-05T00:43:33;11.40;;;3.85;;
12412;SDS011;13877;18.896;-99.222;2022-12-05T00:46:04;9.18;;;4.13;;
12412;SDS011;13877;18.896;-99.222;2022-12-05T00:48:32;7.35;;;3.40;;
12412;SDS011;13877;18.896;-99.222;2022-12-05T00:51:03;9.27;;;4.10;;
12412;SDS011;13877;18.896;-99.222;2022-12-05T00:53:32;13.75;;;4.35;;
12412;SDS011;13877;18.896;-99.222;2022-12-05T00:56:03;8.18;;;4.30;;
12412;SDS011;13877;18.896;-99.222;2022-12-05T00:58:32;13.40;;;5.20;;
12412;SDS011;13877;18.896;-99.222;2022-12-05T01:01:33;10.95;;;4.57;;
12412;SDS011;13877;18.896;-99.222;2022-12-05T01:04:06;14.02;;;5.47;;
12412;SDS011;13877;18.896;-99.222;2022-12-05T01:06:38;14.95;;;5.40;;
12412;SDS011;13877;18.896;-99.222;2022-12-05T01:09:05;22.40;;;6.20;;
12412;SDS011;13877;18.896;-99.222;2022-12-05T01:11:33;19.42;;;6.80;;
12412;SDS011;13877;18.896;-99.222;2022-12-05T01:14:00;18.63;;;5.68;;
12412;SDS011;13877;18.896;-99.222;2022-12-05T01:16:29;17.77;;;6.65;;
12412;SDS011;13877;18.896;-99.222;2022-12-05T01:18:59;19.88;;;6.50;;
12412;SDS011;13877;18.896;-99.222;2022-12-05T01:21:27;22.20;;;6.88;;
12412;SDS011;13877;18.896;-99.222;2022-12-05T01:23:54;15.10;;;5.75;;
12412;SDS011;13877;18.896;-99.222;2022-12-05T01:26:22;12.00;;;4.85;;
12412;SDS011;13877;18.896;-99.222;2022-12-05T01:28:50;19.45;;;6.80;;
12412;SDS011;13877;18.896;-99.222;2022-12-05T01:31:22;13.90;;;5.55;;
12412;SDS011;13877;18.896;-99.222;2022-12-05T01:33:57;16.50;;;5.90;;
12412;SDS011;13877;18.896;-99.222;2022-12-05T01:36:25;23.83;;;5.72;;
12412;SDS011;13877;18.896;-99.222;2022-12-05T01:38:53;16.65;;;5.60;;
12412;SDS011;13877;18.896;-99.222;2022-12-05T01:41:28;11.25;;;4.68;;
12412;SDS011;13877;18.896;-99.222;2022-12-05T01:46:31;15.40;;;5.57;;
12412;SDS011;13877;18.896;-99.222;2022-12-05T01:49:04;16.08;;;4.65;;
12412;SDS011;13877;18.896;-99.222;2022-12-05T01:51:39;14.43;;;4.97;;
12412;SDS011;13877;18.896;-99.222;2022-12-05T01:54:10;10.88;;;4.22;;
12412;SDS011;13877;18.896;-99.222;2022-12-05T01:56:39;17.27;;;4.95;;
12412;SDS011;13877;18.896;-99.222;2022-12-05T01:59:07;19.73;;;5.70;;
12412;SDS011;13877;18.896;-99.222;2022-12-05T02:01:35;20.40;;;6.18;;
12412;SDS011;13877;18.896;-99.222;2022-12-05T02:04:03;12.60;;;6.20;;
12412;SDS011;13877;18.896;-99.222;2022-12-05T02:06:31;16.45;;;5.25;;
12412;SDS011;13877;18.896;-99.222;2022-12-05T02:09:00;14.30;;;4.72;;
12412;SDS011;13877;18.896;-99.222;2022-12-05T02:11:27;13.20;;;5.07;;
12412;SDS011;13877;18.896;-99.222;2022-12-05T02:42:41;19.67;;;4.50;;
12412;SDS011;13877;18.896;-99.222;2022-12-05T02:45:15;8.02;;;3.55;;
12412;SDS011;13877;18.896;-99.222;2022-12-05T02:47:50;9.77;;;3.60;;
12412;SDS011;13877;18.896;-99.222;2022-12-05T02:50:22;18.95;;;8.75;;
12412;SDS011;13877;18.896;-99.222;2022-12-05T02:53:09;26.70;;;7.40;;
12412;SDS011;13877;18.896;-99.222;2022-12-05T02:55:39;26.00;;;6.95;;
12412;SDS011;13877;18.896;-99.222;2022-12-05T02:58:10;18.02;;;7.90;;
12412;SDS011;13877;18.896;-99.222;2022-12-05T03:00:54;24.75;;;9.43;;
12412;SDS011;13877;18.896;-99.222;2022-12-05T03:03:24;23.02;;;7.75;;
12412;SDS011;13877;18.896;-99.222;2022-12-05T03:08:41;26.60;;;8.02;;
12412;SDS011;13877;18.896;-99.222;2022-12-05T03:11:14;26.92;;;7.13;;
12412;SDS011;13877;18.896;-99.222;2022-12-05T03:13:45;22.52;;;7.15;;
12412;SDS011;13877;18.896;-99.222;2022-12-05T03:16:28;24.25;;;8.02;;
12412;SDS011;13877;18.896;-99.222;2022-12-05T03:22:12;22.98;;;7.22;;
12412;SDS011;13877;18.896;-99.222;2022-12-05T03:24:46;17.85;;;6.95;;
12412;SDS011;13877;18.896;-99.222;2022-12-05T03:27:25;22.92;;;6.35;;
12412;SDS011;13877;18.896;-99.222;2022-12-05T03:30:08;23.02;;;6.30;;
12412;SDS011;13877;18.896;-99.222;2022-12-05T03:32:43;14.05;;;6.00;;
12412;SDS011;13877;18.896;-99.222;2022-12-05T03:35:35;18.08;;;6.95;;
12412;SDS011;13877;18.896;-99.222;2022-12-05T03:38:26;14.10;;;5.60;;
12412;SDS011;13877;18.896;-99.222;2022-12-05T03:41:18;17.75;;;5.53;;
12412;SDS011;13877;18.896;-99.222;2022-12-05T03:44:41;13.50;;;4.72;;
12412;SDS011;13877;18.896;-99.222;2022-12-05T03:46:50;10.82;;;4.78;;
12412;SDS011;13877;18.896;-99.222;2022-12-05T03:54:31;13.07;;;5.38;;
12412;SDS011;13877;18.896;-99.222;2022-12-05T03:57:21;14.05;;;4.68;;
12412;SDS011;13877;18.896;-99.222;2022-12-05T04:00:14;14.40;;;5.43;;
12412;SDS011;13877;18.896;-99.222;2022-12-05T04:05:20;11.43;;;4.18;;
12412;SDS011;13877;18.896;-99.222;2022-12-05T04:07:59;11.23;;;3.88;;
12412;SDS011;13877;18.896;-99.222;2022-12-05T04:10:32;10.93;;;3.53;;
12412;SDS011;13877;18.896;-99.222;2022-12-05T04:13:27;6.28;;;3.10;;
12412;SDS011;13877;18.896;-99.222;2022-12-05T04:16:07;6.82;;;2.88;;
12412;SDS011;13877;18.896;-99.222;2022-12-05T04:19:10;7.13;;;3.00;;
12412;SDS011;13877;18.896;-99.222;2022-12-05T04:21:48;8.20;;;2.63;;
12412;SDS011;13877;18.896;-99.222;2022-12-05T04:24:20;12.45;;;2.90;;
12412;SDS011;13877;18.896;-99.222;2022-12-05T04:27:16;17.95;;;2.78;;
12412;SDS011;13877;18.896;-99.222;2022-12-05T04:30:13;8.15;;;2.60;;
12412;SDS011;13877;18.896;-99.222;2022-12-05T04:35:33;7.95;;;2.58;;
12412;SDS011;13877;18.896;-99.222;2022-12-05T04:41:30;5.18;;;2.38;;
12412;SDS011;13877;18.896;-99.222;2022-12-05T04:44:05;5.65;;;2.45;;
12412;SDS011;13877;18.896;-99.222;2022-12-05T04:46:35;8.32;;;2.70;;
12412;SDS011;13877;18.896;-99.222;2022-12-05T04:49:06;12.63;;;2.77;;
12412;SDS011;13877;18.896;-99.222;2022-12-05T04:51:36;10.40;;;3.17;;
12412;SDS011;13877;18.896;-99.222;2022-12-05T04:54:15;10.77;;;3.30;;
12412;SDS011;13877;18.896;-99.222;2022-12-05T04:57:26;9.50;;;3.05;;
12412;SDS011;13877;18.896;-99.222;2022-12-05T04:59:58;8.30;;;3.30;;
12412;SDS011;13877;18.896;-99.222;2022-12-05T05:02:27;7.78;;;2.67;;
12412;SDS011;13877;18.896;-99.222;2022-12-05T05:04:59;7.03;;;2.55;;
12412;SDS011;13877;18.896;-99.222;2022-12-05T05:07:28;8.48;;;2.67;;
12412;SDS011;13877;18.896;-99.222;2022-12-05T05:09:55;8.15;;;2.88;;
12412;SDS011;13877;18.896;-99.222;2022-12-05T05:12:22;4.38;;;2.58;;
12412;SDS011;13877;18.896;-99.222;2022-12-05T05:14:49;7.40;;;2.58;;
12412;SDS011;13877;18.896;-99.222;2022-12-05T05:17:16;7.00;;;2.60;;
12412;SDS011;13877;18.896;-99.222;2022-12-05T05:19:43;6.55;;;2.13;;
12412;SDS011;13877;18.896;-99.222;2022-12-05T05:22:09;8.80;;;2.70;;
12412;SDS011;13877;18.896;-99.222;2022-12-05T05:24:37;5.97;;;2.72;;
12412;SDS011;13877;18.896;-99.222;2022-12-05T05:27:03;6.50;;;2.53;;
12412;SDS011;13877;18.896;-99.222;2022-12-05T05:29:30;6.80;;;2.35;;
12412;SDS011;13877;18.896;-99.222;2022-12-05T05:31:57;4.63;;;2.28;;
12412;SDS011;13877;18.896;-99.222;2022-12-05T05:34:24;9.15;;;2.75;;
12412;SDS011;13877;18.896;-99.222;2022-12-05T05:36:53;7.80;;;2.55;;
12412;SDS011;13877;18.896;-99.222;2022-12-05T05:39:21;6.47;;;2.33;;
12412;SDS011;13877;18.896;-99.222;2022-12-05T05:41:48;8.25;;;3.13;;
12412;SDS011;13877;18.896;-99.222;2022-12-05T05:44:15;9.43;;;3.17;;
12412;SDS011;13877;18.896;-99.222;2022-12-05T05:46:42;12.10;;;3.10;;
12412;SDS011;13877;18.896;-99.222;2022-12-05T05:49:09;7.60;;;2.78;;
12412;SDS011;13877;18.896;-99.222;2022-12-05T05:51:36;8.20;;;3.15;;
12412;SDS011;13877;18.896;-99.222;2022-12-05T05:54:03;11.63;;;2.53;;
12412;SDS011;13877;18.896;-99.222;2022-12-05T05:56:30;6.25;;;2.70;;
12412;SDS011;13877;18.896;-99.222;2022-12-05T05:58:58;8.18;;;2.78;;
12412;SDS011;13877;18.896;-99.222;2022-12-05T06:01:27;4.60;;;2.35;;
12412;SDS011;13877;18.896;-99.222;2022-12-05T06:03:56;7.50;;;2.60;;
12412;SDS011;13877;18.896;-99.222;2022-12-05T06:06:23;7.78;;;2.50;;
12412;SDS011;13877;18.896;-99.222;2022-12-05T06:08:50;6.40;;;2.30;;
12412;SDS011;13877;18.896;-99.222;2022-12-05T06:11:20;6.82;;;3.10;;
12412;SDS011;13877;18.896;-99.222;2022-12-05T06:13:49;7.63;;;3.35;;
12412;SDS011;13877;18.896;-99.222;2022-12-05T06:16:17;9.27;;;2.55;;
12412;SDS011;13877;18.896;-99.222;2022-12-05T06:18:45;9.38;;;3.25;;
12412;SDS011;13877;18.896;-99.222;2022-12-05T06:21:12;5.00;;;2.28;;
12412;SDS011;13877;18.896;-99.222;2022-12-05T06:23:39;6.13;;;2.50;;
12412;SDS011;13877;18.896;-99.222;2022-12-05T06:26:09;4.65;;;2.60;;
12412;SDS011;13877;18.896;-99.222;2022-12-05T06:28:38;7.20;;;2.13;;
12412;SDS011;13877;18.896;-99.222;2022-12-05T06:31:06;8.30;;;2.95;;
12412;SDS011;13877;18.896;-99.222;2022-12-05T06:33:39;4.55;;;2.47;;
12412;SDS011;13877;18.896;-99.222;2022-12-05T06:36:07;6.15;;;2.42;;
12412;SDS011;13877;18.896;-99.222;2022-12-05T06:38:35;10.10;;;2.97;;
12412;SDS011;13877;18.896;-99.222;2022-12-05T06:41:03;5.25;;;2.17;;
12412;SDS011;13877;18.896;-99.222;2022-12-05T06:43:32;6.90;;;2.80;;
12412;SDS011;13877;18.896;-99.222;2022-12-05T06:45:59;3.95;;;2.25;;
12412;SDS011;13877;18.896;-99.222;2022-12-05T06:48:29;6.20;;;2.92;;
12412;SDS011;13877;18.896;-99.222;2022-12-05T06:50:56;11.30;;;2.63;;
12412;SDS011;13877;18.896;-99.222;2022-12-05T06:53:23;5.97;;;3.10;;
12412;SDS011;13877;18.896;-99.222;2022-12-05T06:55:54;5.13;;;2.00;;
12412;SDS011;13877;18.896;-99.222;2022-12-05T06:58:26;4.95;;;2.10;;
12412;SDS011;13877;18.896;-99.222;2022-12-05T07:00:54;7.72;;;2.85;;
12412;SDS011;13877;18.896;-99.222;2022-12-05T07:03:39;7.00;;;2.17;;
12412;SDS011;13877;18.896;-99.222;2022-12-05T07:06:08;10.85;;;2.20;;
12412;SDS011;13877;18.896;-99.222;2022-12-05T07:08:36;5.68;;;2.78;;
12412;SDS011;13877;18.896;-99.222;2022-12-05T07:11:02;4.65;;;2.25;;
12412;SDS011;13877;18.896;-99.222;2022-12-05T07:13:30;13.60;;;2.22;;
12412;SDS011;13877;18.896;-99.222;2022-12-05T07:15:57;9.60;;;3.55;;
12412;SDS011;13877;18.896;-99.222;2022-12-05T07:18:25;4.97;;;2.13;;
12412;SDS011;13877;18.896;-99.222;2022-12-05T07:20:59;14.73;;;2.63;;
12412;SDS011;13877;18.896;-99.222;2022-12-05T07:23:28;6.13;;;2.50;;
12412;SDS011;13877;18.896;-99.222;2022-12-05T07:25:55;14.52;;;2.38;;
12412;SDS011;13877;18.896;-99.222;2022-12-05T07:28:25;11.90;;;2.42;;
12412;SDS011;13877;18.896;-99.222;2022-12-05T07:31:01;4.60;;;2.33;;
12412;SDS011;13877;18.896;-99.222;2022-12-05T07:33:33;5.18;;;2.22;;
12412;SDS011;13877;18.896;-99.222;2022-12-05T07:36:04;5.18;;;2.40;;
12412;SDS011;13877;18.896;-99.222;2022-12-05T07:38:34;6.57;;;2.53;;
12412;SDS011;13877;18.896;-99.222;2022-12-05T07:41:05;8.45;;;3.55;;
12412;SDS011;13877;18.896;-99.222;2022-12-05T07:43:33;9.88;;;2.60;;
12412;SDS011;13877;18.896;-99.222;2022-12-05T07:46:03;7.18;;;2.60;;
12412;SDS011;13877;18.896;-99.222;2022-12-05T07:51:01;6.15;;;2.40;;
12412;SDS011;13877;18.896;-99.222;2022-12-05T07:53:32;8.07;;;2.20;;
12412;SDS011;13877;18.896;-99.222;2022-12-05T07:55:59;7.78;;;2.38;;
12412;SDS011;13877;18.896;-99.222;2022-12-05T07:58:28;5.03;;;2.28;;
12412;SDS011;13877;18.896;-99.222;2022-12-05T08:00:56;4.95;;;2.00;;
12412;SDS011;13877;18.896;-99.222;2022-12-05T08:03:30;4.47;;;2.03;;
12412;SDS011;13877;18.896;-99.222;2022-12-05T08:06:01;4.22;;;2.00;;
12412;SDS011;13877;18.896;-99.222;2022-12-05T08:08:33;8.77;;;2.47;;
12412;SDS011;13877;18.896;-99.222;2022-12-05T08:11:08;4.53;;;2.35;;
12412;SDS011;13877;18.896;-99.222;2022-12-05T08:13:39;8.52;;;2.80;;
12412;SDS011;13877;18.896;-99.222;2022-12-05T08:16:07;6.18;;;2.20;;
12412;SDS011;13877;18.896;-99.222;2022-12-05T08:18:36;7.68;;;2.53;;
12412;SDS011;13877;18.896;-99.222;2022-12-05T08:21:04;6.70;;;2.20;;
12412;SDS011;13877;18.896;-99.222;2022-12-05T08:23:33;8.25;;;2.20;;
12412;SDS011;13877;18.896;-99.222;2022-12-05T08:26:11;4.57;;;2.33;;
12412;SDS011;13877;18.896;-99.222;2022-12-05T08:28:40;5.65;;;2.15;;
12412;SDS011;13877;18.896;-99.222;2022-12-05T08:31:15;10.32;;;3.00;;
12412;SDS011;13877;18.896;-99.222;2022-12-05T08:33:44;7.68;;;2.10;;
12412;SDS011;13877;18.896;-99.222;2022-12-05T08:36:12;4.82;;;1.90;;
12412;SDS011;13877;18.896;-99.222;2022-12-05T08:38:40;7.80;;;1.90;;
12412;SDS011;13877;18.896;-99.222;2022-12-05T08:41:09;3.85;;;2.10;;
12412;SDS011;13877;18.896;-99.222;2022-12-05T08:43:39;3.30;;;1.67;;
12412;SDS011;13877;18.896;-99.222;2022-12-05T08:46:06;5.55;;;2.30;;
12412;SDS011;13877;18.896;-99.222;2022-12-05T08:48:34;4.25;;;2.33;;
12412;SDS011;13877;18.896;-99.222;2022-12-05T08:51:08;3.00;;;1.70;;
12412;SDS011;13877;18.896;-99.222;2022-12-05T08:53:37;5.10;;;1.98;;
12412;SDS011;13877;18.896;-99.222;2022-12-05T08:56:06;3.83;;;2.10;;
12412;SDS011;13877;18.896;-99.222;2022-12-05T08:58:34;3.95;;;1.83;;
12412;SDS011;13877;18.896;-99.222;2022-12-05T09:01:02;3.30;;;1.88;;
12412;SDS011;13877;18.896;-99.222;2022-12-05T09:03:34;3.72;;;2.00;;
12412;SDS011;13877;18.896;-99.222;2022-12-05T09:06:07;7.00;;;2.00;;
12412;SDS011;13877;18.896;-99.222;2022-12-05T09:08:35;9.70;;;2.10;;
12412;SDS011;13877;18.896;-99.222;2022-12-05T09:11:06;3.75;;;1.70;;
12412;SDS011;13877;18.896;-99.222;2022-12-05T09:13:36;10.40;;;2.33;;
12412;SDS011;13877;18.896;-99.222;2022-12-05T09:18:39;8.40;;;2.03;;
12412;SDS011;13877;18.896;-99.222;2022-12-05T09:21:10;3.33;;;1.80;;
12412;SDS011;13877;18.896;-99.222;2022-12-05T09:23:39;3.78;;;1.70;;
12412;SDS011;13877;18.896;-99.222;2022-12-05T09:26:07;5.78;;;2.28;;
12412;SDS011;13877;18.896;-99.222;2022-12-05T09:28:37;5.60;;;1.77;;
12412;SDS011;13877;18.896;-99.222;2022-12-05T09:31:05;3.90;;;1.83;;
12412;SDS011;13877;18.896;-99.222;2022-12-05T09:33:34;7.45;;;1.88;;
12412;SDS011;13877;18.896;-99.222;2022-12-05T09:36:06;4.35;;;1.92;;
12412;SDS011;13877;18.896;-99.222;2022-12-05T09:38:37;3.65;;;2.00;;
12412;SDS011;13877;18.896;-99.222;2022-12-05T09:52:42;9.40;;;2.28;;
12412;SDS011;13877;18.896;-99.222;2022-12-05T09:55:22;6.57;;;2.42;;
12412;SDS011;13877;18.896;-99.222;2022-12-05T09:57:56;2.90;;;1.75;;
12412;SDS011;13877;18.896;-99.222;2022-12-05T10:00:25;3.65;;;2.17;;
12412;SDS011;13877;18.896;-99.222;2022-12-05T10:03:02;10.95;;;2.30;;
12412;SDS011;13877;18.896;-99.222;2022-12-05T10:08:47;3.63;;;1.80;;
12412;SDS011;13877;18.896;-99.222;2022-12-05T10:16:34;5.32;;;2.40;;
12412;SDS011;13877;18.896;-99.222;2022-12-05T10:19:04;7.05;;;2.50;;
12412;SDS011;13877;18.896;-99.222;2022-12-05T10:21:47;3.72;;;1.90;;
12412;SDS011;13877;18.896;-99.222;2022-12-05T10:24:21;3.03;;;1.75;;
12412;SDS011;13877;18.896;-99.222;2022-12-05T10:27:18;3.05;;;1.85;;
12412;SDS011;13877;18.896;-99.222;2022-12-05T10:30:06;5.93;;;2.38;;
12412;SDS011;13877;18.896;-99.222;2022-12-05T10:32:53;6.07;;;2.23;;
12412;SDS011;13877;18.896;-99.222;2022-12-05T10:35:22;4.82;;;2.03;;
12412;SDS011;13877;18.896;-99.222;2022-12-05T10:37:56;4.35;;;2.28;;
12412;SDS011;13877;18.896;-99.222;2022-12-05T10:40:26;3.78;;;2.35;;
12412;SDS011;13877;18.896;-99.222;2022-12-05T10:43:04;11.25;;;2.65;;
12412;SDS011;13877;18.896;-99.222;2022-12-05T10:45:33;15.77;;;2.72;;
12412;SDS011;13877;18.896;-99.222;2022-12-05T10:48:13;5.47;;;2.47;;
12412;SDS011;13877;18.896;-99.222;2022-12-05T10:50:44;10.52;;;2.72;;
12412;SDS011;13877;18.896;-99.222;2022-12-05T10:53:15;6.25;;;2.65;;
12412;SDS011;13877;18.896;-99.222;2022-12-05T10:55:45;6.45;;;2.00;;
12412;SDS011;13877;18.896;-99.222;2022-12-05T10:58:14;4.53;;;2.47;;
12412;SDS011;13877;18.896;-99.222;2022-12-05T11:00:43;3.42;;;2.33;;
12412;SDS011;13877;18.896;-99.222;2022-12-05T11:03:23;5.80;;;2.40;;
12412;SDS011;13877;18.896;-99.222;2022-12-05T11:08:25;6.22;;;2.58;;
12412;SDS011;13877;18.896;-99.222;2022-12-05T11:11:02;12.40;;;2.75;;
12412;SDS011;13877;18.896;-99.222;2022-12-05T11:16:31;5.85;;;2.85;;
12412;SDS011;13877;18.896;-99.222;2022-12-05T11:19:23;4.85;;;3.17;;
12412;SDS011;13877;18.896;-99.222;2022-12-05T11:21:56;6.68;;;2.08;;
12412;SDS011;13877;18.896;-99.222;2022-12-05T11:24:31;2.35;;;1.95;;
12412;SDS011;13877;18.896;-99.222;2022-12-05T11:29:42;4.35;;;1.90;;
12412;SDS011;13877;18.896;-99.222;2022-12-05T11:32:19;5.55;;;2.50;;
12412;SDS011;13877;18.896;-99.222;2022-12-05T11:34:54;3.50;;;2.22;;
12412;SDS011;13877;18.896;-99.222;2022-12-05T11:37:28;7.18;;;2.03;;
12412;SDS011;13877;18.896;-99.222;2022-12-05T11:56:56;6.65;;;2.40;;
12412;SDS011;13877;18.896;-99.222;2022-12-05T12:05:12;10.00;;;2.20;;
12412;SDS011;13877;18.896;-99.222;2022-12-05T12:11:35;4.40;;;2.40;;
12412;SDS011;13877;18.896;-99.222;2022-12-05T12:33:28;6.68;;;2.85;;
12412;SDS011;13877;18.896;-99.222;2022-12-05T12:38:58;8.20;;;2.35;;
12412;SDS011;13877;18.896;-99.222;2022-12-05T12:47:29;7.20;;;2.67;;
12412;SDS011;13877;18.896;-99.222;2022-12-05T12:55:39;10.35;;;2.33;;
12412;SDS011;13877;18.896;-99.222;2022-12-05T13:01:51;9.60;;;2.55;;
12412;SDS011;13877;18.896;-99.222;2022-12-05T13:06:36;5.82;;;2.30;;
12412;SDS011;13877;18.896;-99.222;2022-12-05T13:09:17;5.90;;;2.65;;
12412;SDS011;13877;18.896;-99.222;2022-12-05T13:11:46;5.25;;;2.20;;
12412;SDS011;13877;18.896;-99.222;2022-12-05T13:14:16;12.20;;;2.38;;
12412;SDS011;13877;18.896;-99.222;2022-12-05T13:16:48;9.40;;;2.95;;
12412;SDS011;13877;18.896;-99.222;2022-12-05T13:22:13;6.55;;;2.33;;
12412;SDS011;13877;18.896;-99.222;2022-12-05T13:24:41;12.75;;;3.58;;
12412;SDS011;13877;18.896;-99.222;2022-12-05T13:27:13;6.53;;;2.78;;
12412;SDS011;13877;18.896;-99.222;2022-12-05T13:32:26;9.68;;;2.80;;
12412;SDS011;13877;18.896;-99.222;2022-12-05T13:35:19;7.60;;;2.42;;
12412;SDS011;13877;18.896;-99.222;2022-12-05T13:38:20;4.10;;;2.17;;
12412;SDS011;13877;18.896;-99.222;2022-12-05T13:41:13;11.27;;;2.47;;
12412;SDS011;13877;18.896;-99.222;2022-12-05T13:44:00;10.43;;;2.53;;
12412;SDS011;13877;18.896;-99.222;2022-12-05T13:46:40;7.10;;;2.60;;
12412;SDS011;13877;18.896;-99.222;2022-12-05T13:49:13;5.97;;;2.20;;
12412;SDS011;13877;18.896;-99.222;2022-12-05T13:52:02;4.50;;;2.50;;
12412;SDS011;13877;18.896;-99.222;2022-12-05T13:54:42;6.85;;;2.38;;
12412;SDS011;13877;18.896;-99.222;2022-12-05T14:10:13;8.68;;;3.03;;
12412;SDS011;13877;18.896;-99.222;2022-12-05T14:15:23;8.55;;;3.20;;
12412;SDS011;13877;18.896;-99.222;2022-12-05T14:18:09;10.57;;;3.58;;
12412;SDS011;13877;18.896;-99.222;2022-12-05T14:20:47;17.33;;;3.78;;
12412;SDS011;13877;18.896;-99.222;2022-12-05T14:23:52;12.93;;;4.30;;
12412;SDS011;13877;18.896;-99.222;2022-12-05T14:26:44;36.47;;;4.88;;
12412;SDS011;13877;18.896;-99.222;2022-12-05T14:34:34;18.63;;;5.97;;
12412;SDS011;13877;18.896;-99.222;2022-12-05T14:37:07;22.00;;;4.05;;
12412;SDS011;13877;18.896;-99.222;2022-12-05T14:39:53;15.05;;;3.55;;
12412;SDS011;13877;18.896;-99.222;2022-12-05T14:47:57;3.28;;;2.20;;
12412;SDS011;13877;18.896;-99.222;2022-12-05T14:50:42;4.10;;;1.98;;
12412;SDS011;13877;18.896;-99.222;2022-12-05T14:55:43;10.55;;;3.03;;
12412;SDS011;13877;18.896;-99.222;2022-12-05T14:58:15;7.18;;;2.70;;
12412;SDS011;13877;18.896;-99.222;2022-12-05T15:00:59;5.00;;;2.47;;
12412;SDS011;13877;18.896;-99.222;2022-12-05T15:03:33;17.13;;;3.70;;
12412;SDS011;13877;18.896;-99.222;2022-12-05T15:06:03;13.13;;;3.22;;
12412;SDS011;13877;18.896;-99.222;2022-12-05T15:08:41;7.55;;;2.47;;
12412;SDS011;13877;18.896;-99.222;2022-12-05T15:11:15;6.70;;;2.42;;
12412;SDS011;13877;18.896;-99.222;2022-12-05T15:13:59;11.15;;;2.17;;
12412;SDS011;13877;18.896;-99.222;2022-12-05T15:16:34;18.87;;;2.93;;
12412;SDS011;13877;18.896;-99.222;2022-12-05T15:19:05;9.63;;;3.33;;
12412;SDS011;13877;18.896;-99.222;2022-12-05T15:21:41;14.05;;;2.80;;
12412;SDS011;13877;18.896;-99.222;2022-12-05T15:24:15;12.85;;;4.20;;
12412;SDS011;13877;18.896;-99.222;2022-12-05T15:29:26;6.82;;;2.90;;
12412;SDS011;13877;18.896;-99.222;2022-12-05T15:32:17;5.95;;;2.63;;
12412;SDS011;13877;18.896;-99.222;2022-12-05T15:40:14;13.25;;;3.13;;
12412;SDS011;13877;18.896;-99.222;2022-12-05T15:42:48;6.88;;;3.75;;
12412;SDS011;13877;18.896;-99.222;2022-12-05T15:45:23;11.02;;;3.58;;
12412;SDS011;13877;18.896;-99.222;2022-12-05T15:47:55;5.95;;;2.90;;
12412;SDS011;13877;18.896;-99.222;2022-12-05T15:50:46;9.65;;;2.88;;
12412;SDS011;13877;18.896;-99.222;2022-12-05T15:53:19;4.90;;;2.90;;
12412;SDS011;13877;18.896;-99.222;2022-12-05T15:55:50;4.90;;;2.40;;
12412;SDS011;13877;18.896;-99.222;2022-12-05T15:58:25;7.75;;;2.72;;
12412;SDS011;13877;18.896;-99.222;2022-12-05T16:01:00;9.48;;;2.33;;
12412;SDS011;13877;18.896;-99.222;2022-12-05T16:03:39;11.75;;;3.45;;
12412;SDS011;13877;18.896;-99.222;2022-12-05T16:06:19;10.43;;;2.38;;
12412;SDS011;13877;18.896;-99.222;2022-12-05T16:08:52;3.97;;;2.13;;
12412;SDS011;13877;18.896;-99.222;2022-12-05T16:11:21;7.47;;;2.10;;
12412;SDS011;13877;18.896;-99.222;2022-12-05T16:13:56;3.38;;;1.52;;
12412;SDS011;13877;18.896;-99.222;2022-12-05T16:16:31;7.32;;;2.38;;
12412;SDS011;13877;18.896;-99.222;2022-12-05T16:19:05;6.95;;;2.80;;
12412;SDS011;13877;18.896;-99.222;2022-12-05T16:21:58;5.80;;;2.58;;
12412;SDS011;13877;18.896;-99.222;2022-12-05T16:24:46;10.73;;;1.90;;
12412;SDS011;13877;18.896;-99.222;2022-12-05T16:27:30;7.78;;;2.50;;
12412;SDS011;13877;18.896;-99.222;2022-12-05T16:32:47;7.97;;;2.03;;
12412;SDS011;13877;18.896;-99.222;2022-12-05T16:35:26;8.32;;;2.50;;
12412;SDS011;13877;18.896;-99.222;2022-12-05T16:38:04;5.40;;;2.40;;
12412;SDS011;13877;18.896;-99.222;2022-12-05T16:48:41;3.75;;;1.80;;
12412;SDS011;13877;18.896;-99.222;2022-12-05T16:51:41;3.50;;;2.20;;
12412;SDS011;13877;18.896;-99.222;2022-12-05T16:54:11;5.50;;;2.40;;
12412;SDS011;13877;18.896;-99.222;2022-12-05T16:56:40;6.30;;;2.58;;
12412;SDS011;13877;18.896;-99.222;2022-12-05T16:59:10;5.90;;;2.33;;
12412;SDS011;13877;18.896;-99.222;2022-12-05T17:01:45;7.38;;;2.67;;
12412;SDS011;13877;18.896;-99.222;2022-12-05T17:04:13;4.28;;;2.42;;
12412;SDS011;13877;18.896;-99.222;2022-12-05T17:06:40;4.75;;;2.17;;
12412;SDS011;13877;18.896;-99.222;2022-12-05T17:09:08;6.03;;;2.00;;
12412;SDS011;13877;18.896;-99.222;2022-12-05T17:11:35;14.73;;;2.83;;
12412;SDS011;13877;18.896;-99.222;2022-12-05T17:14:09;6.22;;;1.90;;
12412;SDS011;13877;18.896;-99.222;2022-12-05T17:16:40;7.43;;;2.83;;
12412;SDS011;13877;18.896;-99.222;2022-12-05T17:19:08;5.72;;;2.50;;
12412;SDS011;13877;18.896;-99.222;2022-12-05T17:21:39;18.40;;;3.15;;
12412;SDS011;13877;18.896;-99.222;2022-12-05T17:24:09;9.73;;;3.20;;
12412;SDS011;13877;18.896;-99.222;2022-12-05T17:26:42;8.60;;;2.45;;
12412;SDS011;13877;18.896;-99.222;2022-12-05T17:29:10;3.35;;;2.15;;
12412;SDS011;13877;18.896;-99.222;2022-12-05T17:31:37;6.22;;;2.83;;
12412;SDS011;13877;18.896;-99.222;2022-12-05T17:34:09;5.10;;;2.17;;
12412;SDS011;13877;18.896;-99.222;2022-12-05T17:36:40;15.82;;;2.88;;
12412;SDS011;13877;18.896;-99.222;2022-12-05T17:39:08;6.55;;;2.80;;
12412;SDS011;13877;18.896;-99.222;2022-12-05T17:41:35;5.82;;;2.85;;
12412;SDS011;13877;18.896;-99.222;2022-12-05T17:44:03;8.45;;;2.92;;
12412;SDS011;13877;18.896;-99.222;2022-12-05T17:46:31;6.13;;;2.50;;
12412;SDS011;13877;18.896;-99.222;2022-12-05T17:48:58;7.22;;;3.00;;
12412;SDS011;13877;18.896;-99.222;2022-12-05T17:51:25;9.77;;;3.10;;
12412;SDS011;13877;18.896;-99.222;2022-12-05T17:53:52;7.38;;;3.55;;
12412;SDS011;13877;18.896;-99.222;2022-12-05T17:56:20;5.97;;;3.13;;
12412;SDS011;13877;18.896;-99.222;2022-12-05T17:58:47;6.40;;;2.97;;
12412;SDS011;13877;18.896;-99.222;2022-12-05T18:01:16;17.80;;;3.47;;
12412;SDS011;13877;18.896;-99.222;2022-12-05T18:03:44;5.00;;;2.90;;
12412;SDS011;13877;18.896;-99.222;2022-12-05T18:06:12;9.88;;;3.20;;
12412;SDS011;13877;18.896;-99.222;2022-12-05T18:08:40;10.98;;;3.63;;
12412;SDS011;13877;18.896;-99.222;2022-12-05T18:11:11;7.22;;;3.20;;
12412;SDS011;13877;18.896;-99.222;2022-12-05T18:13:39;14.02;;;3.58;;